sensor_id;sensor_type;location;lat;lon;timestamp;temperature;humidity
25945;SHT31;13742;49.306;8.636;2024-02-14T00:00:01;5.82;79.00
25945;SHT31;13742;49.306;8.636;2024-02-14T00:01:00;5.83;79.01
25945;SHT31;13742;49.306;8.636;2024-02-14T00:02:00;5.83;79.16
25945;SHT31;13742;49.306;8.636;2024-02-14T00:03:01;5.84;79.27
25945;SHT31;13742;49.306;8.636;2024-02-14T00:04:00;5.86;78.95
25945;SHT31;13742;49.306;8.636;2024-02-14T00:05:01;5.82;78.88
25945;SHT31;13742;49.306;8.636;2024-02-14T00:06:00;5.84;79.02
25945;SHT31;13742;49.306;8.636;2024-02-14T00:07:00;5.80;78.89
25945;SHT31;13742;49.306;8.636;2024-02-14T00:08:00;5.82;78.86
25945;SHT31;13742;49.306;8.636;2024-02-14T00:09:00;5.82;78.84
25945;SHT31;13742;49.306;8.636;2024-02-14T00:10:00;5.83;79.19
25945;SHT31;13742;49.306;8.636;2024-02-14T00:11:01;5.82;78.96
25945;SHT31;13742;49.306;8.636;2024-02-14T00:12:01;5.84;79.09
25945;SHT31;13742;49.306;8.636;2024-02-14T00:13:02;5.82;79.07
25945;SHT31;13742;49.306;8.636;2024-02-14T00:14:00;5.76;78.97
25945;SHT31;13742;49.306;8.636;2024-02-14T00:15:04;5.74;79.28
25945;SHT31;13742;49.306;8.636;2024-02-14T00:16:01;5.73;79.14
25945;SHT31;13742;49.306;8.636;2024-02-14T00:17:00;5.74;79.46
25945;SHT31;13742;49.306;8.636;2024-02-14T00:18:01;5.73;79.36
25945;SHT31;13742;49.306;8.636;2024-02-14T00:19:02;5.74;79.29
25945;SHT31;13742;49.306;8.636;2024-02-14T00:20:01;5.77;79.28
25945;SHT31;13742;49.306;8.636;2024-02-14T00:21:00;5.72;79.52
25945;SHT31;13742;49.306;8.636;2024-02-14T00:22:00;5.70;79.44
25945;SHT31;13742;49.306;8.636;2024-02-14T00:23:01;5.70;79.21
25945;SHT31;13742;49.306;8.636;2024-02-14T00:24:02;5.72;79.21
25945;SHT31;13742;49.306;8.636;2024-02-14T00:25:01;5.73;79.20
25945;SHT31;13742;49.306;8.636;2024-02-14T00:26:00;5.73;79.20
25945;SHT31;13742;49.306;8.636;2024-02-14T00:27:01;5.74;79.27
25945;SHT31;13742;49.306;8.636;2024-02-14T00:28:00;5.77;79.35
25945;SHT31;13742;49.306;8.636;2024-02-14T00:29:01;5.76;79.33
25945;SHT31;13742;49.306;8.636;2024-02-14T00:30:01;5.79;79.37
25945;SHT31;13742;49.306;8.636;2024-02-14T00:31:00;5.77;79.32
25945;SHT31;13742;49.306;8.636;2024-02-14T00:32:01;5.79;79.52
25945;SHT31;13742;49.306;8.636;2024-02-14T00:33:01;5.80;79.30
25945;SHT31;13742;49.306;8.636;2024-02-14T00:34:00;5.83;79.44
25945;SHT31;13742;49.306;8.636;2024-02-14T00:35:00;5.82;79.39
25945;SHT31;13742;49.306;8.636;2024-02-14T00:36:00;5.83;79.58
25945;SHT31;13742;49.306;8.636;2024-02-14T00:37:00;5.86;79.41
25945;SHT31;13742;49.306;8.636;2024-02-14T00:38:00;5.86;79.28
25945;SHT31;13742;49.306;8.636;2024-02-14T00:39:00;5.86;79.26
25945;SHT31;13742;49.306;8.636;2024-02-14T00:40:00;5.84;79.29
25945;SHT31;13742;49.306;8.636;2024-02-14T00:41:00;5.83;79.19
25945;SHT31;13742;49.306;8.636;2024-02-14T00:42:00;5.86;79.14
25945;SHT31;13742;49.306;8.636;2024-02-14T00:43:00;5.83;79.20
25945;SHT31;13742;49.306;8.636;2024-02-14T00:44:01;5.86;79.87
25945;SHT31;13742;49.306;8.636;2024-02-14T00:45:00;5.83;79.58
25945;SHT31;13742;49.306;8.636;2024-02-14T00:46:00;5.82;79.33
25945;SHT31;13742;49.306;8.636;2024-02-14T00:47:02;5.83;79.22
25945;SHT31;13742;49.306;8.636;2024-02-14T00:48:01;5.82;79.37
25945;SHT31;13742;49.306;8.636;2024-02-14T00:49:00;5.82;79.32
25945;SHT31;13742;49.306;8.636;2024-02-14T00:50:04;5.86;79.28
25945;SHT31;13742;49.306;8.636;2024-02-14T00:51:00;5.86;79.62
25945;SHT31;13742;49.306;8.636;2024-02-14T00:52:01;5.86;80.36
25945;SHT31;13742;49.306;8.636;2024-02-14T00:53:00;5.84;80.14
25945;SHT31;13742;49.306;8.636;2024-02-14T00:54:00;5.89;80.54
25945;SHT31;13742;49.306;8.636;2024-02-14T00:55:04;5.87;80.42
25945;SHT31;13742;49.306;8.636;2024-02-14T00:56:01;5.86;80.06
25945;SHT31;13742;49.306;8.636;2024-02-14T00:57:01;5.86;79.89
25945;SHT31;13742;49.306;8.636;2024-02-14T00:58:00;5.86;80.02
25945;SHT31;13742;49.306;8.636;2024-02-14T00:59:01;5.89;80.29
25945;SHT31;13742;49.306;8.636;2024-02-14T01:00:00;5.87;80.14
25945;SHT31;13742;49.306;8.636;2024-02-14T01:01:00;5.87;80.31
25945;SHT31;13742;49.306;8.636;2024-02-14T01:02:00;5.90;80.06
25945;SHT31;13742;49.306;8.636;2024-02-14T01:03:00;5.90;80.53
25945;SHT31;13742;49.306;8.636;2024-02-14T01:04:00;5.91;80.25
25945;SHT31;13742;49.306;8.636;2024-02-14T01:05:01;5.91;80.10
25945;SHT31;13742;49.306;8.636;2024-02-14T01:06:00;5.91;79.96
25945;SHT31;13742;49.306;8.636;2024-02-14T01:07:00;5.90;80.06
25945;SHT31;13742;49.306;8.636;2024-02-14T01:08:00;5.93;79.95
25945;SHT31;13742;49.306;8.636;2024-02-14T01:09:00;5.94;80.12
25945;SHT31;13742;49.306;8.636;2024-02-14T01:10:01;5.94;79.79
25945;SHT31;13742;49.306;8.636;2024-02-14T01:11:00;5.93;80.31
25945;SHT31;13742;49.306;8.636;2024-02-14T01:12:00;5.94;80.31
25945;SHT31;13742;49.306;8.636;2024-02-14T01:13:01;5.96;80.24
25945;SHT31;13742;49.306;8.636;2024-02-14T01:14:01;5.97;80.27
25945;SHT31;13742;49.306;8.636;2024-02-14T01:15:00;6.01;80.69
25945;SHT31;13742;49.306;8.636;2024-02-14T01:16:00;6.01;80.28
25945;SHT31;13742;49.306;8.636;2024-02-14T01:17:00;6.03;80.14
25945;SHT31;13742;49.306;8.636;2024-02-14T01:18:00;6.01;80.04
25945;SHT31;13742;49.306;8.636;2024-02-14T01:19:00;6.01;79.91
25945;SHT31;13742;49.306;8.636;2024-02-14T01:20:00;6.00;80.09
25945;SHT31;13742;49.306;8.636;2024-02-14T01:21:00;6.01;80.16
25945;SHT31;13742;49.306;8.636;2024-02-14T01:22:00;6.03;80.06
25945;SHT31;13742;49.306;8.636;2024-02-14T01:23:00;6.03;80.09
25945;SHT31;13742;49.306;8.636;2024-02-14T01:24:00;6.05;80.13
25945;SHT31;13742;49.306;8.636;2024-02-14T01:25:00;6.05;80.22
25945;SHT31;13742;49.306;8.636;2024-02-14T01:26:02;6.07;80.28
25945;SHT31;13742;49.306;8.636;2024-02-14T01:27:00;6.08;80.33
25945;SHT31;13742;49.306;8.636;2024-02-14T01:28:00;6.10;80.15
25945;SHT31;13742;49.306;8.636;2024-02-14T01:29:01;6.08;80.49
25945;SHT31;13742;49.306;8.636;2024-02-14T01:30:00;6.10;80.15
25945;SHT31;13742;49.306;8.636;2024-02-14T01:31:00;6.11;80.42
25945;SHT31;13742;49.306;8.636;2024-02-14T01:32:01;6.15;80.54
25945;SHT31;13742;49.306;8.636;2024-02-14T01:33:01;6.17;80.69
25945;SHT31;13742;49.306;8.636;2024-02-14T01:34:02;6.15;80.47
25945;SHT31;13742;49.306;8.636;2024-02-14T01:35:00;6.14;80.50
25945;SHT31;13742;49.306;8.636;2024-02-14T01:36:00;6.17;80.27
25945;SHT31;13742;49.306;8.636;2024-02-14T01:37:00;6.17;80.53
25945;SHT31;13742;49.306;8.636;2024-02-14T01:38:03;6.18;80.29
25945;SHT31;13742;49.306;8.636;2024-02-14T01:39:00;6.20;80.25
25945;SHT31;13742;49.306;8.636;2024-02-14T01:40:00;6.21;80.31
25945;SHT31;13742;49.306;8.636;2024-02-14T01:41:02;6.20;79.99
25945;SHT31;13742;49.306;8.636;2024-02-14T01:42:01;6.20;80.06
25945;SHT31;13742;49.306;8.636;2024-02-14T01:43:01;6.20;80.30
25945;SHT31;13742;49.306;8.636;2024-02-14T01:44:01;6.21;80.06
25945;SHT31;13742;49.306;8.636;2024-02-14T01:45:03;6.22;80.53
25945;SHT31;13742;49.306;8.636;2024-02-14T01:46:05;6.21;80.74
25945;SHT31;13742;49.306;8.636;2024-02-14T01:47:00;6.24;80.51
25945;SHT31;13742;49.306;8.636;2024-02-14T01:48:02;6.24;80.56
25945;SHT31;13742;49.306;8.636;2024-02-14T01:49:00;6.20;80.80
25945;SHT31;13742;49.306;8.636;2024-02-14T01:50:01;6.21;80.58
25945;SHT31;13742;49.306;8.636;2024-02-14T01:51:01;6.21;80.79
25945;SHT31;13742;49.306;8.636;2024-02-14T01:52:02;6.21;80.79
25945;SHT31;13742;49.306;8.636;2024-02-14T01:53:01;6.21;81.10
25945;SHT31;13742;49.306;8.636;2024-02-14T01:54:00;6.22;80.96
25945;SHT31;13742;49.306;8.636;2024-02-14T01:55:02;6.24;81.11
25945;SHT31;13742;49.306;8.636;2024-02-14T01:56:00;6.22;81.20
25945;SHT31;13742;49.306;8.636;2024-02-14T01:57:00;6.22;81.12
25945;SHT31;13742;49.306;8.636;2024-02-14T01:58:01;6.25;81.18
25945;SHT31;13742;49.306;8.636;2024-02-14T01:59:00;6.25;81.19
25945;SHT31;13742;49.306;8.636;2024-02-14T02:00:03;6.22;81.06
25945;SHT31;13742;49.306;8.636;2024-02-14T02:01:00;6.24;80.96
25945;SHT31;13742;49.306;8.636;2024-02-14T02:02:00;6.28;80.90
25945;SHT31;13742;49.306;8.636;2024-02-14T02:03:00;6.26;80.87
25945;SHT31;13742;49.306;8.636;2024-02-14T02:04:01;6.29;81.01
25945;SHT31;13742;49.306;8.636;2024-02-14T02:05:00;6.32;81.00
25945;SHT31;13742;49.306;8.636;2024-02-14T02:06:00;6.29;81.10
25945;SHT31;13742;49.306;8.636;2024-02-14T02:07:01;6.32;81.01
25945;SHT31;13742;49.306;8.636;2024-02-14T02:08:01;6.32;81.12
25945;SHT31;13742;49.306;8.636;2024-02-14T02:09:01;6.32;80.88
25945;SHT31;13742;49.306;8.636;2024-02-14T02:10:00;6.32;80.71
25945;SHT31;13742;49.306;8.636;2024-02-14T02:11:01;6.35;80.98
25945;SHT31;13742;49.306;8.636;2024-02-14T02:12:00;6.36;81.01
25945;SHT31;13742;49.306;8.636;2024-02-14T02:13:01;6.36;80.91
25945;SHT31;13742;49.306;8.636;2024-02-14T02:14:00;6.35;80.94
25945;SHT31;13742;49.306;8.636;2024-02-14T02:15:00;6.35;80.90
25945;SHT31;13742;49.306;8.636;2024-02-14T02:16:05;6.36;81.03
25945;SHT31;13742;49.306;8.636;2024-02-14T02:17:00;6.36;81.07
25945;SHT31;13742;49.306;8.636;2024-02-14T02:18:02;6.38;80.85
25945;SHT31;13742;49.306;8.636;2024-02-14T02:19:00;6.38;80.63
25945;SHT31;13742;49.306;8.636;2024-02-14T02:20:01;6.36;80.62
25945;SHT31;13742;49.306;8.636;2024-02-14T02:21:07;6.39;80.89
25945;SHT31;13742;49.306;8.636;2024-02-14T02:22:00;6.39;80.85
25945;SHT31;13742;49.306;8.636;2024-02-14T02:23:00;6.36;80.54
25945;SHT31;13742;49.306;8.636;2024-02-14T02:24:01;6.38;80.57
25945;SHT31;13742;49.306;8.636;2024-02-14T02:25:02;6.39;80.54
25945;SHT31;13742;49.306;8.636;2024-02-14T02:26:01;6.42;80.72
25945;SHT31;13742;49.306;8.636;2024-02-14T02:27:00;6.42;80.61
25945;SHT31;13742;49.306;8.636;2024-02-14T02:28:00;6.42;80.52
25945;SHT31;13742;49.306;8.636;2024-02-14T02:29:00;6.42;80.55
25945;SHT31;13742;49.306;8.636;2024-02-14T02:30:01;6.41;80.37
25945;SHT31;13742;49.306;8.636;2024-02-14T02:31:00;6.41;80.36
25945;SHT31;13742;49.306;8.636;2024-02-14T02:32:00;6.42;80.77
25945;SHT31;13742;49.306;8.636;2024-02-14T02:33:01;6.42;80.44
25945;SHT31;13742;49.306;8.636;2024-02-14T02:34:00;6.43;80.69
25945;SHT31;13742;49.306;8.636;2024-02-14T02:35:01;6.45;80.53
25945;SHT31;13742;49.306;8.636;2024-02-14T02:36:00;6.45;80.41
25945;SHT31;13742;49.306;8.636;2024-02-14T02:37:01;6.45;80.29
25945;SHT31;13742;49.306;8.636;2024-02-14T02:38:00;6.42;80.21
25945;SHT31;13742;49.306;8.636;2024-02-14T02:39:00;6.45;80.20
25945;SHT31;13742;49.306;8.636;2024-02-14T02:40:00;6.42;80.11
25945;SHT31;13742;49.306;8.636;2024-02-14T02:41:00;6.41;80.10
25945;SHT31;13742;49.306;8.636;2024-02-14T02:42:00;6.43;80.19
25945;SHT31;13742;49.306;8.636;2024-02-14T02:43:00;6.43;80.06
25945;SHT31;13742;49.306;8.636;2024-02-14T02:44:01;6.43;80.13
25945;SHT31;13742;49.306;8.636;2024-02-14T02:45:02;6.39;80.31
25945;SHT31;13742;49.306;8.636;2024-02-14T02:46:01;6.41;80.11
25945;SHT31;13742;49.306;8.636;2024-02-14T02:47:00;6.41;80.14
25945;SHT31;13742;49.306;8.636;2024-02-14T02:48:01;6.41;80.09
25945;SHT31;13742;49.306;8.636;2024-02-14T02:49:02;6.45;80.05
25945;SHT31;13742;49.306;8.636;2024-02-14T02:50:03;6.42;79.93
25945;SHT31;13742;49.306;8.636;2024-02-14T02:51:00;6.43;80.07
25945;SHT31;13742;49.306;8.636;2024-02-14T02:52:00;6.42;80.00
25945;SHT31;13742;49.306;8.636;2024-02-14T02:53:00;6.42;79.96
25945;SHT31;13742;49.306;8.636;2024-02-14T02:54:01;6.43;79.94
25945;SHT31;13742;49.306;8.636;2024-02-14T02:55:01;6.42;79.81
25945;SHT31;13742;49.306;8.636;2024-02-14T02:56:00;6.43;79.65
25945;SHT31;13742;49.306;8.636;2024-02-14T02:57:03;6.45;79.71
25945;SHT31;13742;49.306;8.636;2024-02-14T02:58:00;6.45;79.70
25945;SHT31;13742;49.306;8.636;2024-02-14T02:59:03;6.43;79.78
25945;SHT31;13742;49.306;8.636;2024-02-14T03:00:00;6.46;79.89
25945;SHT31;13742;49.306;8.636;2024-02-14T03:01:00;6.51;79.96
25945;SHT31;13742;49.306;8.636;2024-02-14T03:02:00;6.46;79.88
25945;SHT31;13742;49.306;8.636;2024-02-14T03:03:02;6.51;79.79
25945;SHT31;13742;49.306;8.636;2024-02-14T03:04:01;6.51;79.64
25945;SHT31;13742;49.306;8.636;2024-02-14T03:05:03;6.55;79.40
25945;SHT31;13742;49.306;8.636;2024-02-14T03:06:04;6.53;79.22
25945;SHT31;13742;49.306;8.636;2024-02-14T03:07:04;6.56;79.31
25945;SHT31;13742;49.306;8.636;2024-02-14T03:08:00;6.59;79.23
25945;SHT31;13742;49.306;8.636;2024-02-14T03:09:01;6.57;79.16
25945;SHT31;13742;49.306;8.636;2024-02-14T03:10:00;6.57;79.10
25945;SHT31;13742;49.306;8.636;2024-02-14T03:11:04;6.62;79.04
25945;SHT31;13742;49.306;8.636;2024-02-14T03:12:01;6.60;79.04
25945;SHT31;13742;49.306;8.636;2024-02-14T03:13:00;6.63;79.09
25945;SHT31;13742;49.306;8.636;2024-02-14T03:14:00;6.65;79.13
25945;SHT31;13742;49.306;8.636;2024-02-14T03:15:03;6.66;79.04
25945;SHT31;13742;49.306;8.636;2024-02-14T03:16:00;6.66;79.05
25945;SHT31;13742;49.306;8.636;2024-02-14T03:17:04;6.68;79.12
25945;SHT31;13742;49.306;8.636;2024-02-14T03:18:00;6.66;79.11
25945;SHT31;13742;49.306;8.636;2024-02-14T03:19:00;6.68;79.08
25945;SHT31;13742;49.306;8.636;2024-02-14T03:20:00;6.71;79.17
25945;SHT31;13742;49.306;8.636;2024-02-14T03:21:00;6.68;78.96
25945;SHT31;13742;49.306;8.636;2024-02-14T03:22:00;6.72;78.86
25945;SHT31;13742;49.306;8.636;2024-02-14T03:23:01;6.69;78.81
25945;SHT31;13742;49.306;8.636;2024-02-14T03:24:04;6.69;78.81
25945;SHT31;13742;49.306;8.636;2024-02-14T03:25:01;6.73;78.82
25945;SHT31;13742;49.306;8.636;2024-02-14T03:26:00;6.71;78.98
25945;SHT31;13742;49.306;8.636;2024-02-14T03:27:00;6.73;78.82
25945;SHT31;13742;49.306;8.636;2024-02-14T03:28:00;6.72;78.95
25945;SHT31;13742;49.306;8.636;2024-02-14T03:29:01;6.72;78.92
25945;SHT31;13742;49.306;8.636;2024-02-14T03:30:03;6.72;79.00
25945;SHT31;13742;49.306;8.636;2024-02-14T03:31:00;6.72;79.06
25945;SHT31;13742;49.306;8.636;2024-02-14T03:32:07;6.73;79.03
25945;SHT31;13742;49.306;8.636;2024-02-14T03:33:02;6.69;78.94
25945;SHT31;13742;49.306;8.636;2024-02-14T03:34:00;6.71;78.99
25945;SHT31;13742;49.306;8.636;2024-02-14T03:35:00;6.69;79.28
25945;SHT31;13742;49.306;8.636;2024-02-14T03:36:00;6.72;79.55
25945;SHT31;13742;49.306;8.636;2024-02-14T03:37:02;6.72;79.66
25945;SHT31;13742;49.306;8.636;2024-02-14T03:38:01;6.73;79.48
25945;SHT31;13742;49.306;8.636;2024-02-14T03:39:05;6.72;79.55
25945;SHT31;13742;49.306;8.636;2024-02-14T03:40:00;6.72;79.82
25945;SHT31;13742;49.306;8.636;2024-02-14T03:41:00;6.73;79.80
25945;SHT31;13742;49.306;8.636;2024-02-14T03:42:03;6.73;80.05
25945;SHT31;13742;49.306;8.636;2024-02-14T03:43:00;6.76;80.22
25945;SHT31;13742;49.306;8.636;2024-02-14T03:44:02;6.75;80.06
25945;SHT31;13742;49.306;8.636;2024-02-14T03:45:07;6.76;79.73
25945;SHT31;13742;49.306;8.636;2024-02-14T03:46:00;6.75;79.59
25945;SHT31;13742;49.306;8.636;2024-02-14T03:47:00;6.75;79.35
25945;SHT31;13742;49.306;8.636;2024-02-14T03:48:00;6.76;79.43
25945;SHT31;13742;49.306;8.636;2024-02-14T03:49:01;6.76;79.47
25945;SHT31;13742;49.306;8.636;2024-02-14T03:50:02;6.72;79.48
25945;SHT31;13742;49.306;8.636;2024-02-14T03:51:00;6.76;79.51
25945;SHT31;13742;49.306;8.636;2024-02-14T03:52:01;6.73;79.47
25945;SHT31;13742;49.306;8.636;2024-02-14T03:53:01;6.73;79.46
25945;SHT31;13742;49.306;8.636;2024-02-14T03:54:00;6.76;79.48
25945;SHT31;13742;49.306;8.636;2024-02-14T03:55:00;6.75;79.41
25945;SHT31;13742;49.306;8.636;2024-02-14T03:56:01;6.76;79.52
25945;SHT31;13742;49.306;8.636;2024-02-14T03:57:00;6.75;79.40
25945;SHT31;13742;49.306;8.636;2024-02-14T03:58:00;6.73;79.36
25945;SHT31;13742;49.306;8.636;2024-02-14T03:59:00;6.72;79.38
25945;SHT31;13742;49.306;8.636;2024-02-14T04:00:04;6.76;79.18
25945;SHT31;13742;49.306;8.636;2024-02-14T04:01:01;6.75;79.15
25945;SHT31;13742;49.306;8.636;2024-02-14T04:02:00;6.76;78.87
25945;SHT31;13742;49.306;8.636;2024-02-14T04:03:01;6.76;78.86
25945;SHT31;13742;49.306;8.636;2024-02-14T04:04:01;6.76;78.97
25945;SHT31;13742;49.306;8.636;2024-02-14T04:05:00;6.75;79.07
25945;SHT31;13742;49.306;8.636;2024-02-14T04:06:01;6.78;79.14
25945;SHT31;13742;49.306;8.636;2024-02-14T04:07:02;6.78;78.90
25945;SHT31;13742;49.306;8.636;2024-02-14T04:08:00;6.76;78.89
25945;SHT31;13742;49.306;8.636;2024-02-14T04:09:00;6.78;78.91
25945;SHT31;13742;49.306;8.636;2024-02-14T04:10:00;6.76;78.94
25945;SHT31;13742;49.306;8.636;2024-02-14T04:11:00;6.78;79.01
25945;SHT31;13742;49.306;8.636;2024-02-14T04:12:00;6.79;79.08
25945;SHT31;13742;49.306;8.636;2024-02-14T04:13:00;6.78;79.05
25945;SHT31;13742;49.306;8.636;2024-02-14T04:14:00;6.78;79.06
25945;SHT31;13742;49.306;8.636;2024-02-14T04:15:00;6.80;79.20
25945;SHT31;13742;49.306;8.636;2024-02-14T04:16:00;6.79;78.96
25945;SHT31;13742;49.306;8.636;2024-02-14T04:17:01;6.79;78.95
25945;SHT31;13742;49.306;8.636;2024-02-14T04:18:02;6.80;78.95
25945;SHT31;13742;49.306;8.636;2024-02-14T04:19:00;6.82;78.90
25945;SHT31;13742;49.306;8.636;2024-02-14T04:20:00;6.83;78.78
25945;SHT31;13742;49.306;8.636;2024-02-14T04:21:00;6.79;78.79
25945;SHT31;13742;49.306;8.636;2024-02-14T04:22:00;6.82;78.81
25945;SHT31;13742;49.306;8.636;2024-02-14T04:23:00;6.83;78.86
25945;SHT31;13742;49.306;8.636;2024-02-14T04:24:00;6.82;79.09
25945;SHT31;13742;49.306;8.636;2024-02-14T04:25:00;6.79;79.11
25945;SHT31;13742;49.306;8.636;2024-02-14T04:26:00;6.83;79.08
25945;SHT31;13742;49.306;8.636;2024-02-14T04:27:03;6.80;78.98
25945;SHT31;13742;49.306;8.636;2024-02-14T04:28:00;6.80;79.23
25945;SHT31;13742;49.306;8.636;2024-02-14T04:29:01;6.79;79.13
25945;SHT31;13742;49.306;8.636;2024-02-14T04:30:01;6.82;79.17
25945;SHT31;13742;49.306;8.636;2024-02-14T04:31:00;6.82;79.16
25945;SHT31;13742;49.306;8.636;2024-02-14T04:32:00;6.82;79.09
25945;SHT31;13742;49.306;8.636;2024-02-14T04:33:01;6.83;79.09
25945;SHT31;13742;49.306;8.636;2024-02-14T04:34:00;6.83;79.71
25945;SHT31;13742;49.306;8.636;2024-02-14T04:35:01;6.87;79.74
25945;SHT31;13742;49.306;8.636;2024-02-14T04:36:00;6.86;79.47
25945;SHT31;13742;49.306;8.636;2024-02-14T04:37:02;6.84;79.56
25945;SHT31;13742;49.306;8.636;2024-02-14T04:38:01;6.84;79.41
25945;SHT31;13742;49.306;8.636;2024-02-14T04:39:01;6.83;79.55
25945;SHT31;13742;49.306;8.636;2024-02-14T04:40:01;6.86;79.74
25945;SHT31;13742;49.306;8.636;2024-02-14T04:41:00;6.84;79.53
25945;SHT31;13742;49.306;8.636;2024-02-14T04:42:01;6.84;79.54
25945;SHT31;13742;49.306;8.636;2024-02-14T04:43:00;6.86;79.56
25945;SHT31;13742;49.306;8.636;2024-02-14T04:44:00;6.84;79.61
25945;SHT31;13742;49.306;8.636;2024-02-14T04:45:00;6.84;79.68
25945;SHT31;13742;49.306;8.636;2024-02-14T04:46:00;6.86;79.71
25945;SHT31;13742;49.306;8.636;2024-02-14T04:47:00;6.86;79.74
25945;SHT31;13742;49.306;8.636;2024-02-14T04:48:00;6.86;80.07
25945;SHT31;13742;49.306;8.636;2024-02-14T04:49:03;6.87;80.33
25945;SHT31;13742;49.306;8.636;2024-02-14T04:50:01;6.86;80.08
25945;SHT31;13742;49.306;8.636;2024-02-14T04:51:00;6.87;79.79
25945;SHT31;13742;49.306;8.636;2024-02-14T04:52:00;6.89;79.82
25945;SHT31;13742;49.306;8.636;2024-02-14T04:53:00;6.89;80.01
25945;SHT31;13742;49.306;8.636;2024-02-14T04:54:00;6.90;79.87
25945;SHT31;13742;49.306;8.636;2024-02-14T04:55:00;6.92;80.06
25945;SHT31;13742;49.306;8.636;2024-02-14T04:56:00;6.92;80.05
25945;SHT31;13742;49.306;8.636;2024-02-14T04:57:00;6.93;80.23
25945;SHT31;13742;49.306;8.636;2024-02-14T04:58:00;6.92;79.92
25945;SHT31;13742;49.306;8.636;2024-02-14T04:59:00;6.90;79.86
25945;SHT31;13742;49.306;8.636;2024-02-14T05:00:00;6.90;80.11
25945;SHT31;13742;49.306;8.636;2024-02-14T05:01:02;6.90;80.00
25945;SHT31;13742;49.306;8.636;2024-02-14T05:02:00;6.90;80.12
25945;SHT31;13742;49.306;8.636;2024-02-14T05:03:01;6.90;80.15
25945;SHT31;13742;49.306;8.636;2024-02-14T05:04:00;6.90;80.62
25945;SHT31;13742;49.306;8.636;2024-02-14T05:05:01;6.92;80.17
25945;SHT31;13742;49.306;8.636;2024-02-14T05:06:02;6.92;80.05
25945;SHT31;13742;49.306;8.636;2024-02-14T05:07:00;6.90;80.02
25945;SHT31;13742;49.306;8.636;2024-02-14T05:08:00;6.90;80.66
25945;SHT31;13742;49.306;8.636;2024-02-14T05:09:00;6.90;80.66
25945;SHT31;13742;49.306;8.636;2024-02-14T05:10:00;6.92;80.48
25945;SHT31;13742;49.306;8.636;2024-02-14T05:11:00;6.93;80.66
25945;SHT31;13742;49.306;8.636;2024-02-14T05:12:00;6.92;80.76
25945;SHT31;13742;49.306;8.636;2024-02-14T05:13:01;6.92;80.51
25945;SHT31;13742;49.306;8.636;2024-02-14T05:14:01;6.96;80.73
25945;SHT31;13742;49.306;8.636;2024-02-14T05:15:00;6.90;80.50
25945;SHT31;13742;49.306;8.636;2024-02-14T05:16:04;6.94;80.30
25945;SHT31;13742;49.306;8.636;2024-02-14T05:17:01;6.94;80.17
25945;SHT31;13742;49.306;8.636;2024-02-14T05:18:00;6.94;80.09
25945;SHT31;13742;49.306;8.636;2024-02-14T05:19:01;6.93;80.04
25945;SHT31;13742;49.306;8.636;2024-02-14T05:20:00;6.92;80.37
25945;SHT31;13742;49.306;8.636;2024-02-14T05:21:00;6.93;80.37
25945;SHT31;13742;49.306;8.636;2024-02-14T05:22:00;6.93;80.46
25945;SHT31;13742;49.306;8.636;2024-02-14T05:23:00;6.94;80.25
25945;SHT31;13742;49.306;8.636;2024-02-14T05:24:01;6.93;80.17
25945;SHT31;13742;49.306;8.636;2024-02-14T05:25:00;6.94;80.17
25945;SHT31;13742;49.306;8.636;2024-02-14T05:26:05;6.93;80.20
25945;SHT31;13742;49.306;8.636;2024-02-14T05:27:00;6.93;80.17
25945;SHT31;13742;49.306;8.636;2024-02-14T05:28:00;6.93;80.27
25945;SHT31;13742;49.306;8.636;2024-02-14T05:29:01;6.94;80.11
25945;SHT31;13742;49.306;8.636;2024-02-14T05:30:01;6.94;80.16
25945;SHT31;13742;49.306;8.636;2024-02-14T05:31:01;6.96;80.16
25945;SHT31;13742;49.306;8.636;2024-02-14T05:32:00;6.96;80.16
25945;SHT31;13742;49.306;8.636;2024-02-14T05:33:01;6.94;80.07
25945;SHT31;13742;49.306;8.636;2024-02-14T05:34:00;6.93;80.04
25945;SHT31;13742;49.306;8.636;2024-02-14T05:35:01;6.94;80.10
25945;SHT31;13742;49.306;8.636;2024-02-14T05:36:00;6.97;80.51
25945;SHT31;13742;49.306;8.636;2024-02-14T05:37:00;6.94;80.33
25945;SHT31;13742;49.306;8.636;2024-02-14T05:38:00;6.96;80.26
25945;SHT31;13742;49.306;8.636;2024-02-14T05:39:00;6.97;80.24
25945;SHT31;13742;49.306;8.636;2024-02-14T05:40:00;6.96;80.05
25945;SHT31;13742;49.306;8.636;2024-02-14T05:41:00;6.94;79.98
25945;SHT31;13742;49.306;8.636;2024-02-14T05:42:00;6.96;80.05
25945;SHT31;13742;49.306;8.636;2024-02-14T05:43:00;6.97;79.96
25945;SHT31;13742;49.306;8.636;2024-02-14T05:44:00;6.94;79.95
25945;SHT31;13742;49.306;8.636;2024-02-14T05:45:01;6.93;80.12
25945;SHT31;13742;49.306;8.636;2024-02-14T05:46:00;6.96;79.99
25945;SHT31;13742;49.306;8.636;2024-02-14T05:47:00;6.94;80.04
25945;SHT31;13742;49.306;8.636;2024-02-14T05:48:00;6.97;80.15
25945;SHT31;13742;49.306;8.636;2024-02-14T05:49:00;6.94;80.30
25945;SHT31;13742;49.306;8.636;2024-02-14T05:50:00;6.97;80.13
25945;SHT31;13742;49.306;8.636;2024-02-14T05:51:00;6.97;80.07
25945;SHT31;13742;49.306;8.636;2024-02-14T05:52:00;6.97;80.36
25945;SHT31;13742;49.306;8.636;2024-02-14T05:53:00;7.01;80.60
25945;SHT31;13742;49.306;8.636;2024-02-14T05:54:00;7.00;80.72
25945;SHT31;13742;49.306;8.636;2024-02-14T05:55:00;7.00;80.39
25945;SHT31;13742;49.306;8.636;2024-02-14T05:56:00;7.00;80.34
25945;SHT31;13742;49.306;8.636;2024-02-14T05:57:02;7.00;80.47
25945;SHT31;13742;49.306;8.636;2024-02-14T05:58:00;7.00;80.50
25945;SHT31;13742;49.306;8.636;2024-02-14T05:59:00;7.01;81.33
25945;SHT31;13742;49.306;8.636;2024-02-14T06:00:00;7.01;81.39
25945;SHT31;13742;49.306;8.636;2024-02-14T06:01:00;7.04;81.30
25945;SHT31;13742;49.306;8.636;2024-02-14T06:02:03;7.06;81.23
25945;SHT31;13742;49.306;8.636;2024-02-14T06:03:00;7.03;80.79
25945;SHT31;13742;49.306;8.636;2024-02-14T06:04:00;7.01;80.74
25945;SHT31;13742;49.306;8.636;2024-02-14T06:05:00;7.04;81.02
25945;SHT31;13742;49.306;8.636;2024-02-14T06:06:00;7.06;80.81
25945;SHT31;13742;49.306;8.636;2024-02-14T06:07:00;7.01;80.63
25945;SHT31;13742;49.306;8.636;2024-02-14T06:08:03;7.04;81.16
25945;SHT31;13742;49.306;8.636;2024-02-14T06:09:00;7.04;81.59
25945;SHT31;13742;49.306;8.636;2024-02-14T06:10:00;7.04;81.45
25945;SHT31;13742;49.306;8.636;2024-02-14T06:11:00;7.04;81.26
25945;SHT31;13742;49.306;8.636;2024-02-14T06:12:00;7.04;81.39
25945;SHT31;13742;49.306;8.636;2024-02-14T06:13:00;7.07;81.45
25945;SHT31;13742;49.306;8.636;2024-02-14T06:14:00;7.07;81.07
25945;SHT31;13742;49.306;8.636;2024-02-14T06:15:01;7.08;81.47
25945;SHT31;13742;49.306;8.636;2024-02-14T06:16:00;7.07;81.31
25945;SHT31;13742;49.306;8.636;2024-02-14T06:17:01;7.06;81.02
25945;SHT31;13742;49.306;8.636;2024-02-14T06:18:01;7.04;81.00
25945;SHT31;13742;49.306;8.636;2024-02-14T06:19:00;7.03;81.15
25945;SHT31;13742;49.306;8.636;2024-02-14T06:20:06;7.04;81.00
25945;SHT31;13742;49.306;8.636;2024-02-14T06:21:00;7.04;80.91
25945;SHT31;13742;49.306;8.636;2024-02-14T06:22:00;7.04;81.02
25945;SHT31;13742;49.306;8.636;2024-02-14T06:23:00;7.04;80.91
25945;SHT31;13742;49.306;8.636;2024-02-14T06:24:01;7.03;81.46